Weather observations for the past three days for
Brookings, Brookings Municipal Airport
Imperial (Metric)
Date Time (cdt) Wind (mph) Vis. (mi.) Weather Sky Cond. Temperature (ºF) Relative Humidity Wind Chill (°F) Heat Index (°F) Pressure Precipitation (in)
Air Dwpt 6 hour altimeter (in) sea level (mb) 1 hr 3 hr 6 hr
Max. Min.
06 09:56 S 9 9.00 Overcast OVC009 77 73.9 90% 78 30.04 1016.9
06 08:56 SE 10 8.00 Overcast OVC007 75.9 73.9 94% 75 30.02 1016.4
06 07:56 SE 9 6.00 Fog/Mist OVC007 75 73.9 96% 73 30.03 1016.5
06 06:56 SE 9 6.00 Fog/Mist OVC005 75 73 75 72 94% 73 30 1015.5
06 05:56 SE 9 7.00 Overcast OVC005 73.9 73 97% 30 1015.4
06 04:56 SE 10 6.00 Fog/Mist OVC005 73.9 73 97% 30 1015.4
06 03:56 SE 12 7.00 Overcast OVC005 73.9 73 97% 30.01 1015.6
06 02:56 SE 10 8.00 Partly Cloudy SCT007 73 71.1 94% 29.98 1015.0
06 01:56 SE 14 10.00 Fair CLR 73 71.1 94% 29.99 1015.0
06 00:56 SE 9 10.00 Fair CLR 73 70 86 73 90% 30 1015.6
05 23:56 SE 9 10.00 Fair CLR 73 69.1 87% 30.01 1015.9
05 22:56 SE 13 10.00 Fair CLR 73.9 69.1 85% 30.01 1016.0
05 21:56 SE 12 10.00 Fair CLR 75.9 68 77% 77 30 1015.7
05 20:56 SE 10 10.00 Fair CLR 77 66.9 71% 79 29.98 1015.2
05 19:56 SE 10 10.00 Fair CLR 81 66 61% 83 29.98 1014.9
05 18:56 SE 15 10.00 Fair CLR 86 66 89.1 82.9 51% 88 29.95 1013.8
05 17:56 S 12 10.00 Fair CLR 88 66 48% 90 29.95 1013.7
05 16:56 S 13 10.00 Fair CLR 89.1 64.9 45% 91 29.95 1013.6
05 15:56 SE 14 10.00 Fair CLR 88 64 45% 89 29.95 1013.5
05 14:56 SE 13 10.00 Fair CLR 87.1 64.9 48% 89 29.94 1013.4
05 12:56 SE 14 10.00 Fair CLR 82.9 63 82.9 70 51% 84 29.97 1014.5
05 11:56 SE 14 10.00 Fair CLR 80.1 64 58% 82 29.96 1014.4
05 10:56 SE 12 10.00 Fair CLR 75.9 63 64% 78 29.97 1014.6
05 09:56 SE 12 10.00 Fair CLR 73 61 66% 29.97 1014.8
05 08:56 SE 20 G 31 10.00 Fair CLR 73 59 62% 29.94 1013.8
05 07:56 S 16 10.00 Fair CLR 72 61 68% 30.01 1016.0
05 06:56 SE 9 9.00 Rain FEW041 BKN070 OVC085 71.1 62.1 77 71.1 73% 30.05 1017.4 0.12 0.14
05 05:56 SW 15 G 22 10.00 Thunderstorm in Vicinity Light Rain FEW070 OVC095 75 69.1 82% 75 30.04 1016.8 0.02
05 04:56 E 5 10.00 Light Rain FEW016 SCT110 72 70 94% 29.99 1015.1
05 03:56 SE 14 10.00 Fair CLR 73.9 70 88% 29.97 1014.5
05 02:56 E 14 10.00 Mostly Cloudy BKN007 73.9 72 94% 29.94 1013.5
05 01:56 E 8 10.00 Overcast OVC005 73 70 90% 29.98 1014.7
05 00:56 E 8 10.00 Fair CLR 72 69.1 84.9 70 91% 29.98 1014.8
04 23:56 E 6 10.00 Fair CLR 73 69.1 87% 29.97 1014.3
04 22:56 E 7 10.00 Fair CLR 73.9 69.1 85% 29.97 1014.4
04 21:56 E 10 10.00 Fair CLR 75 69.1 82% 75 29.96 1014.3
04 20:56 E 10 10.00 Fair CLR 78.1 69.1 74% 80 29.94 1013.8
04 19:56 E 8 10.00 Fair CLR 81 68 65% 84 29.93 1013.3
04 18:56 E 12 10.00 Fair CLR 84.9 68 90 84.9 57% 88 29.92 1012.9
04 17:56 E 15 10.00 Fair CLR 87.1 64.9 48% 89 29.92 1012.9
04 16:56 E 10 10.00 Fair CLR 89.1 63 42% 90 29.93 1013.2
04 15:56 E 8 10.00 Fair CLR 89.1 62.1 41% 89 29.93 1013.3
04 14:56 E 7 10.00 Fair CLR 90 61 38% 90 29.93 1013.0
04 13:56 E 10 10.00 Fair CLR 90 55 31% 88 29.94 1013.4
04 12:56 E 13 10.00 Fair CLR 89.1 60.1 89.1 68 38% 89 29.94 1013.3
04 11:56 E 14 10.00 Fair CLR 88 61 40% 88 29.93 1013.0
04 10:56 NE 6 10.00 Fair CLR 84 68 59% 87 29.93 1013.0
04 09:56 N 3 10.00 Fair CLR 77 69.1 77% 79 29.92 1012.9
04 08:56 Calm 10.00 Fair CLR 75 68 79% 76 29.91 1012.4
04 07:56 Calm 9.00 Fair CLR 69.1 66.9 93% 29.9 1012.2
04 06:56 NE 7 9.00 Fair CLR 68 66 73 64 93% 29.88 1011.6
04 05:56 NE 8 3.00 Fog/Mist CLR 66.9 66.9 100% 29.87 1011.0
04 04:56 Calm 8.00 Fair CLR 66 64.9 96% 29.86 1010.7
04 03:56 Calm 10.00 Fair CLR 66 64 93% 29.84 1010.2
04 02:56 E 3 10.00 Fair CLR 71.1 68 90% 29.84 1009.9
04 01:56 SE 6 10.00 Fair CLR 72 69.1 91% 29.84 1010.1
04 00:56 SE 6 10.00 Fair CLR 72 69.1 88 72 91% 29.84 1010.1
03 23:56 SE 5 10.00 Fair CLR 73.9 69.1 85% 29.83 1009.7
03 22:56 SE 8 10.00 Fair CLR 75 69.1 82% 75 29.82 1009.6
03 21:56 S 7 10.00 Fair CLR 79 69.1 72% 82 29.81 1008.9
03 20:56 S 10 9.00 Fair CLR 82 70 67% 86 29.79 1008.3
03 19:56 SE 7 10.00 Fair CLR 84 71.1 65% 89 29.77 1007.6
03 18:56 S 7 10.00 Fair CLR 88 70 91.9 84.9 55% 93 29.76 1007.4
03 17:56 S 14 10.00 Fair CLR 89.1 66.9 48% 92 29.76 1007.2
03 16:56 S 16 10.00 Fair CLR 90 68 48% 94 29.75 1006.7
03 15:56 S 13 10.00 Fair CLR 91 69.1 49% 96 29.74 1006.4
03 14:56 S 15 10.00 Fair CLR 88 72 59% 95 29.74 1006.6
03 13:56 S 16 G 24 10.00 Fair CLR 88 71.1 57% 94 29.76 1007.1
03 12:56 SE 9 10.00 Fair CLR 84.9 71.1 84.9 71.1 63% 90 29.75 1007.1
03 11:56 S 8 10.00 Fair CLR 81 70 69% 84 29.78 1008.3
03 10:56 S 8 10.00 Fair CLR 80.1 69.1 69% 83 29.78 1008.1
Date Time (cdt) Wind (mph) Vis. (mi.) Weather Sky Cond. Air Dwpt Max. Min. Relative Humidity Wind Chill (°F) Heat Index (°F) altimeter (in) sea level (mb) 1 hr 3 hr 6 hr
6 hour
Temperature (ºF) Pressure Precipitation (in)